Gustavsfors, Sweden

11:55 PM CEST on July 23, 2016 (GMT +0200)
Jonsarna, Ransbysatter, Varmland, Sweden | | Change Station

Elev 427 ft 60.03 °N, 13.24 °E | Updated 3 minutes ago

Clear
Clear
63.9 °F
Feels Like 63.9 °F
N
0.0
Wind Variable Wind from North
Gusts 0.0 mph

Today
High -- | Low -- °F
--% Chance of Precip.
Yesterday
High -- | Low -- °F
Precip. -- in
Pressure 30.12 in
Visibility 6.2 miles
Clouds
Dew Point 62 °F
Humidity 95%
Rainfall 0.02 in
Snow Depth Not available.
4:24 AM 9:56 PM
Waning Gibbous, 82% visible
METAR ESOK 232150Z AUTO VRB03KT 9999 NCD 20/14 Q1020
Pressure 30.12 in
Visibility 6.2 miles
Clouds
Dew Point 62 °F
Humidity 95%
Rainfall 0.02 in
Snow Depth Not available.
4:24 AM 9:56 PM
Waning Gibbous, 82% visible
METAR ESOK 232150Z AUTO VRB03KT 9999 NCD 20/14 Q1020

10-Day Weather Forecast

×

Almanac

Astronomy

Jul. 23, 2016 Rise Set
Actual Time
Civil Twilight
Nautical Twilight
Astronomical Twilight
Moon
Length of Visible Light
Length of Day
Tomorrow will be .
, % of the Moon is Illuminated

Today's Extremes

Country Highs Country Lows

Community

WunderPhotos

Upload Photos

1,926,934 photos uploaded!

WunderBlog® & News

Nearby

Air Quality

  Air Quality AQ Index Pollutant
Not available.

Snow Depth

Station Depth Elevation

Earthquake Activity

City Distance Mag. Time & Date
Minimum magnitude displayed is 2.5.

Coastal Water Temperatures

Place Temperature

Stations

Nearby Weather Stations

Station Location Temp. Windchill Dew Point Humidity Wind Precip. Elev Updated Type